sensor_id;sensor_type;location;lat;lon;timestamp;pressure;altitude;pressure_sealevel;temperature;humidity
19831;BME280;10076;52.008;4.708;2023-03-03T00:02:20;102530.13;;;6.08;100.00
19831;BME280;10076;52.008;4.708;2023-03-03T00:04:45;102524.81;;;6.11;100.00
19831;BME280;10076;52.008;4.708;2023-03-03T00:07:11;102525.41;;;6.21;100.00
19831;BME280;10076;52.008;4.708;2023-03-03T00:09:36;102532.34;;;6.24;100.00
19831;BME280;10076;52.008;4.708;2023-03-03T00:12:19;102525.47;;;6.18;100.00
19831;BME280;10076;52.008;4.708;2023-03-03T00:14:45;102528.94;;;6.20;100.00
19831;BME280;10076;52.008;4.708;2023-03-03T00:17:21;102535.91;;;6.21;100.00
19831;BME280;10076;52.008;4.708;2023-03-03T00:19:47;102535.91;;;6.21;100.00
19831;BME280;10076;52.008;4.708;2023-03-03T00:22:39;102532.34;;;6.24;100.00
19831;BME280;10076;52.008;4.708;2023-03-03T00:25:30;102531.66;;;6.18;100.00
19831;BME280;10076;52.008;4.708;2023-03-03T00:28:07;102543.13;;;6.12;100.00
19831;BME280;10076;52.008;4.708;2023-03-03T00:30:40;102538.16;;;6.02;100.00
19831;BME280;10076;52.008;4.708;2023-03-03T00:33:18;102534.28;;;6.18;100.00
19831;BME280;10076;52.008;4.708;2023-03-03T00:35:46;102535.47;;;6.05;100.00
19831;BME280;10076;52.008;4.708;2023-03-03T00:38:17;102535.38;;;6.09;100.00
19831;BME280;10076;52.008;4.708;2023-03-03T00:40:44;102539.06;;;6.01;100.00
19831;BME280;10076;52.008;4.708;2023-03-03T00:43:32;102534.53;;;6.07;100.00
19831;BME280;10076;52.008;4.708;2023-03-03T00:45:58;102532.41;;;5.88;100.00
19831;BME280;10076;52.008;4.708;2023-03-03T00:48:25;102539.97;;;6.00;100.00
19831;BME280;10076;52.008;4.708;2023-03-03T00:50:56;102534.88;;;5.94;100.00
19831;BME280;10076;52.008;4.708;2023-03-03T00:53:23;102530.59;;;5.90;100.00
19831;BME280;10076;52.008;4.708;2023-03-03T00:55:51;102535.22;;;5.79;100.00
19831;BME280;10076;52.008;4.708;2023-03-03T00:58:17;102530.72;;;5.85;100.00
19831;BME280;10076;52.008;4.708;2023-03-03T01:00:43;102537.22;;;5.68;100.00
19831;BME280;10076;52.008;4.708;2023-03-03T01:03:13;102533.19;;;5.53;100.00
19831;BME280;10076;52.008;4.708;2023-03-03T01:05:39;102532.13;;;5.62;100.00
19831;BME280;10076;52.008;4.708;2023-03-03T01:08:05;102540.81;;;5.64;100.00
19831;BME280;10076;52.008;4.708;2023-03-03T01:10:33;102539.66;;;5.75;100.00
19831;BME280;10076;52.008;4.708;2023-03-03T01:13:00;102539.84;;;5.68;100.00
19831;BME280;10076;52.008;4.708;2023-03-03T01:15:26;102540.69;;;5.70;100.00
19831;BME280;10076;52.008;4.708;2023-03-03T01:17:51;102528.56;;;5.66;100.00
19831;BME280;10076;52.008;4.708;2023-03-03T01:20:17;102535.00;;;5.51;100.00
19831;BME280;10076;52.008;4.708;2023-03-03T01:22:43;102541.81;;;5.58;100.00
19831;BME280;10076;52.008;4.708;2023-03-03T01:25:09;102545.50;;;5.50;100.00
19831;BME280;10076;52.008;4.708;2023-03-03T01:27:35;102536.72;;;5.52;100.00
19831;BME280;10076;52.008;4.708;2023-03-03T01:30:00;102543.75;;;5.50;100.00
19831;BME280;10076;52.008;4.708;2023-03-03T01:32:26;102539.72;;;5.36;100.00
19831;BME280;10076;52.008;4.708;2023-03-03T01:34:52;102535.91;;;5.50;100.00
19831;BME280;10076;52.008;4.708;2023-03-03T01:37:18;102539.56;;;5.44;100.00
19831;BME280;10076;52.008;4.708;2023-03-03T01:39:47;102534.19;;;5.49;100.00
19831;BME280;10076;52.008;4.708;2023-03-03T01:42:13;102536.75;;;5.51;100.00
19831;BME280;10076;52.008;4.708;2023-03-03T01:44:41;102538.34;;;5.58;100.00
19831;BME280;10076;52.008;4.708;2023-03-03T01:47:14;102543.16;;;5.38;100.00
19831;BME280;10076;52.008;4.708;2023-03-03T01:49:57;102543.16;;;5.38;100.00
19831;BME280;10076;52.008;4.708;2023-03-03T01:52:30;102539.59;;;5.42;100.00
19831;BME280;10076;52.008;4.708;2023-03-03T01:55:01;102540.72;;;5.31;100.00
19831;BME280;10076;52.008;4.708;2023-03-03T01:57:39;102540.47;;;5.41;100.00
19831;BME280;10076;52.008;4.708;2023-03-03T02:00:07;102540.13;;;5.56;100.00
19831;BME280;10076;52.008;4.708;2023-03-03T02:02:34;102546.53;;;5.43;100.00
19831;BME280;10076;52.008;4.708;2023-03-03T02:05:00;102543.94;;;5.42;100.00
19831;BME280;10076;52.008;4.708;2023-03-03T02:07:27;102530.44;;;5.22;100.00
19831;BME280;10076;52.008;4.708;2023-03-03T02:10:09;102546.66;;;5.39;100.00
19831;BME280;10076;52.008;4.708;2023-03-03T02:12:42;102540.47;;;5.41;100.00
19831;BME280;10076;52.008;4.708;2023-03-03T02:15:16;102529.53;;;5.24;100.00
19831;BME280;10076;52.008;4.708;2023-03-03T02:17:42;102537.91;;;5.38;100.00
19831;BME280;10076;52.008;4.708;2023-03-03T02:22:54;102543.16;;;5.38;100.00
19831;BME280;10076;52.008;4.708;2023-03-03T02:28:20;102540.25;;;5.51;100.00
19831;BME280;10076;52.008;4.708;2023-03-03T02:30:46;102547.94;;;5.57;100.00
19831;BME280;10076;52.008;4.708;2023-03-03T02:33:11;102555.56;;;5.68;100.00
19831;BME280;10076;52.008;4.708;2023-03-03T02:35:38;102548.44;;;5.73;100.00
19831;BME280;10076;52.008;4.708;2023-03-03T02:41:29;102541.16;;;5.87;100.00
19831;BME280;10076;52.008;4.708;2023-03-03T02:44:01;102554.53;;;5.75;100.00
19831;BME280;10076;52.008;4.708;2023-03-03T02:46:29;102535.19;;;5.82;100.00
19831;BME280;10076;52.008;4.708;2023-03-03T02:48:56;102541.13;;;5.88;100.00
19831;BME280;10076;52.008;4.708;2023-03-03T02:51:21;102537.50;;;5.94;100.00
19831;BME280;10076;52.008;4.708;2023-03-03T02:53:46;102531.66;;;5.83;100.00
19831;BME280;10076;52.008;4.708;2023-03-03T02:56:12;102538.53;;;5.87;100.00
19831;BME280;10076;52.008;4.708;2023-03-03T02:58:38;102536.75;;;5.87;100.00
19831;BME280;10076;52.008;4.708;2023-03-03T03:01:04;102540.53;;;5.77;100.00
19831;BME280;10076;52.008;4.708;2023-03-03T03:03:32;102543.78;;;5.87;100.00
19831;BME280;10076;52.008;4.708;2023-03-03T03:05:57;102546.59;;;5.78;100.00
19831;BME280;10076;52.008;4.708;2023-03-03T03:08:23;102546.75;;;5.70;100.00
19831;BME280;10076;52.008;4.708;2023-03-03T03:10:48;102551.06;;;5.73;100.00
19831;BME280;10076;52.008;4.708;2023-03-03T03:13:14;102551.03;;;5.76;100.00
19831;BME280;10076;52.008;4.708;2023-03-03T03:15:39;102548.19;;;5.86;100.00
19831;BME280;10076;52.008;4.708;2023-03-03T03:18:05;102542.59;;;5.62;100.00
19831;BME280;10076;52.008;4.708;2023-03-03T03:20:31;102548.34;;;5.79;100.00
19831;BME280;10076;52.008;4.708;2023-03-03T03:22:59;102544.41;;;5.60;100.00
19831;BME280;10076;52.008;4.708;2023-03-03T03:25:26;102555.56;;;5.68;100.00
19831;BME280;10076;52.008;4.708;2023-03-03T03:27:51;102547.56;;;5.74;100.00
19831;BME280;10076;52.008;4.708;2023-03-03T03:30:16;102553.03;;;5.65;100.00
19831;BME280;10076;52.008;4.708;2023-03-03T03:32:44;102547.28;;;5.49;100.00
19831;BME280;10076;52.008;4.708;2023-03-03T03:35:10;102556.72;;;5.55;100.00
19831;BME280;10076;52.008;4.708;2023-03-03T03:37:35;102553.50;;;5.46;100.00
19831;BME280;10076;52.008;4.708;2023-03-03T03:40:00;102555.34;;;5.39;100.00
19831;BME280;10076;52.008;4.708;2023-03-03T03:42:26;102557.72;;;5.51;100.00
19831;BME280;10076;52.008;4.708;2023-03-03T03:44:51;102559.63;;;5.43;100.00
19831;BME280;10076;52.008;4.708;2023-03-03T03:47:16;102557.75;;;5.49;100.00
19831;BME280;10076;52.008;4.708;2023-03-03T03:49:42;102559.91;;;5.69;100.00
19831;BME280;10076;52.008;4.708;2023-03-03T03:52:07;102551.81;;;5.42;100.00
19831;BME280;10076;52.008;4.708;2023-03-03T03:54:32;102563.91;;;5.47;100.00
19831;BME280;10076;52.008;4.708;2023-03-03T03:56:58;102560.25;;;5.16;100.00
19831;BME280;10076;52.008;4.708;2023-03-03T03:59:23;102554.81;;;5.24;100.00
19831;BME280;10076;52.008;4.708;2023-03-03T04:01:48;102564.72;;;5.11;100.00
19831;BME280;10076;52.008;4.708;2023-03-03T04:04:14;102564.53;;;5.19;100.00
19831;BME280;10076;52.008;4.708;2023-03-03T04:06:39;102568.03;;;5.19;100.00
19831;BME280;10076;52.008;4.708;2023-03-03T04:09:05;102565.97;;;5.33;100.00
19831;BME280;10076;52.008;4.708;2023-03-03T04:11:30;102566.00;;;5.32;100.00
19831;BME280;10076;52.008;4.708;2023-03-03T04:13:55;102571.34;;;5.27;100.00
19831;BME280;10076;52.008;4.708;2023-03-03T04:16:21;102578.56;;;5.16;100.00
19831;BME280;10076;52.008;4.708;2023-03-03T04:18:46;102580.03;;;5.29;100.00
19831;BME280;10076;52.008;4.708;2023-03-03T04:21:13;102577.47;;;5.28;100.00
19831;BME280;10076;52.008;4.708;2023-03-03T04:23:39;102583.25;;;5.42;100.00
19831;BME280;10076;52.008;4.708;2023-03-03T04:26:04;102577.81;;;5.49;100.00
19831;BME280;10076;52.008;4.708;2023-03-03T04:28:29;102579.88;;;5.37;100.00
19831;BME280;10076;52.008;4.708;2023-03-03T04:30:55;102572.91;;;5.36;100.00
19831;BME280;10076;52.008;4.708;2023-03-03T04:33:20;102580.88;;;5.30;100.00
19831;BME280;10076;52.008;4.708;2023-03-03T04:35:45;102577.38;;;5.31;100.00
19831;BME280;10076;52.008;4.708;2023-03-03T04:38:10;102580.09;;;5.26;100.00
19831;BME280;10076;52.008;4.708;2023-03-03T04:40:36;102580.50;;;5.47;100.00
19831;BME280;10076;52.008;4.708;2023-03-03T04:43:01;102577.03;;;5.47;100.00
19831;BME280;10076;52.008;4.708;2023-03-03T04:45:26;102588.31;;;5.49;100.00
19831;BME280;10076;52.008;4.708;2023-03-03T04:47:52;102579.97;;;5.32;100.00
19831;BME280;10076;52.008;4.708;2023-03-03T04:50:17;102579.78;;;5.41;100.00
19831;BME280;10076;52.008;4.708;2023-03-03T04:52:42;102584.09;;;5.44;100.00
19831;BME280;10076;52.008;4.708;2023-03-03T04:55:08;102585.88;;;5.42;100.00
19831;BME280;10076;52.008;4.708;2023-03-03T04:57:33;102584.13;;;5.42;100.00
19831;BME280;10076;52.008;4.708;2023-03-03T04:59:59;102587.50;;;5.47;100.00
19831;BME280;10076;52.008;4.708;2023-03-03T05:02:24;102596.03;;;5.56;100.00
19831;BME280;10076;52.008;4.708;2023-03-03T05:04:49;102585.69;;;5.49;100.00
19831;BME280;10076;52.008;4.708;2023-03-03T05:07:15;102589.28;;;5.45;100.00
19831;BME280;10076;52.008;4.708;2023-03-03T05:09:41;102591.31;;;5.33;100.00
19831;BME280;10076;52.008;4.708;2023-03-03T05:12:07;102591.91;;;5.45;100.00
19831;BME280;10076;52.008;4.708;2023-03-03T05:14:32;102588.31;;;5.49;100.00
19831;BME280;10076;52.008;4.708;2023-03-03T05:16:57;102591.84;;;5.46;100.00
19831;BME280;10076;52.008;4.708;2023-03-03T05:19:22;102585.19;;;5.71;100.00
19831;BME280;10076;52.008;4.708;2023-03-03T05:21:48;102589.97;;;5.53;100.00
19831;BME280;10076;52.008;4.708;2023-03-03T05:24:13;102596.53;;;5.72;100.00
19831;BME280;10076;52.008;4.708;2023-03-03T05:26:39;102593.09;;;5.70;100.00
19831;BME280;10076;52.008;4.708;2023-03-03T05:29:06;102594.63;;;5.80;100.00
19831;BME280;10076;52.008;4.708;2023-03-03T05:31:31;102590.50;;;5.68;100.00
19831;BME280;10076;52.008;4.708;2023-03-03T05:33:57;102592.00;;;5.80;100.00
19831;BME280;10076;52.008;4.708;2023-03-03T05:36:22;102593.94;;;5.70;100.00
19831;BME280;10076;52.008;4.708;2023-03-03T05:38:47;102588.59;;;5.75;100.00
19831;BME280;10076;52.008;4.708;2023-03-03T05:41:13;102590.44;;;5.71;100.00
19831;BME280;10076;52.008;4.708;2023-03-03T05:43:38;102589.31;;;5.83;100.00
19831;BME280;10076;52.008;4.708;2023-03-03T05:46:03;102588.50;;;5.81;100.00
19831;BME280;10076;52.008;4.708;2023-03-03T05:48:29;102593.81;;;5.76;100.00
19831;BME280;10076;52.008;4.708;2023-03-03T05:50:57;102597.59;;;5.63;100.00
19831;BME280;10076;52.008;4.708;2023-03-03T05:53:23;102593.19;;;5.65;100.00
19831;BME280;10076;52.008;4.708;2023-03-03T05:55:49;102600.06;;;5.71;100.00
19831;BME280;10076;52.008;4.708;2023-03-03T05:58:14;102604.13;;;5.85;100.00
19831;BME280;10076;52.008;4.708;2023-03-03T06:00:39;102602.53;;;5.78;100.00
19831;BME280;10076;52.008;4.708;2023-03-03T06:03:04;102601.50;;;5.85;100.00
19831;BME280;10076;52.008;4.708;2023-03-03T06:05:30;102597.50;;;5.68;100.00
19831;BME280;10076;52.008;4.708;2023-03-03T06:07:55;102597.78;;;5.94;100.00
19831;BME280;10076;52.008;4.708;2023-03-03T06:10:20;102596.22;;;5.87;100.00
19831;BME280;10076;52.008;4.708;2023-03-03T06:12:46;102601.66;;;5.78;100.00
19831;BME280;10076;52.008;4.708;2023-03-03T06:15:11;102607.78;;;5.75;100.00
19831;BME280;10076;52.008;4.708;2023-03-03T06:17:36;102605.31;;;5.71;100.00
19831;BME280;10076;52.008;4.708;2023-03-03T06:20:02;102608.81;;;5.70;100.00
19831;BME280;10076;52.008;4.708;2023-03-03T06:22:28;102610.34;;;5.80;100.00
19831;BME280;10076;52.008;4.708;2023-03-03T06:24:53;102616.09;;;5.95;100.00
19831;BME280;10076;52.008;4.708;2023-03-03T06:27:19;102615.63;;;5.78;100.00
19831;BME280;10076;52.008;4.708;2023-03-03T06:29:44;102614.91;;;5.70;100.00
19831;BME280;10076;52.008;4.708;2023-03-03T06:32:10;102616.47;;;5.79;100.00
19831;BME280;10076;52.008;4.708;2023-03-03T06:34:36;102617.22;;;5.85;100.00
19831;BME280;10076;52.008;4.708;2023-03-03T06:37:01;102617.31;;;5.81;100.00
19831;BME280;10076;52.008;4.708;2023-03-03T06:39:26;102622.63;;;5.78;100.00
19831;BME280;10076;52.008;4.708;2023-03-03T06:41:52;102625.19;;;5.81;100.00
19831;BME280;10076;52.008;4.708;2023-03-03T06:44:17;102626.78;;;5.88;100.00
19831;BME280;10076;52.008;4.708;2023-03-03T06:46:43;102629.44;;;5.85;100.00
19831;BME280;10076;52.008;4.708;2023-03-03T06:49:08;102633.28;;;5.69;100.00
19831;BME280;10076;52.008;4.708;2023-03-03T06:51:35;102639.13;;;5.81;100.00
19831;BME280;10076;52.008;4.708;2023-03-03T06:54:10;102639.38;;;5.71;100.00
19831;BME280;10076;52.008;4.708;2023-03-03T06:56:36;102641.53;;;5.92;100.00
19831;BME280;10076;52.008;4.708;2023-03-03T06:59:10;102646.00;;;5.87;100.00
19831;BME280;10076;52.008;4.708;2023-03-03T07:01:36;102646.72;;;5.95;100.00
19831;BME280;10076;52.008;4.708;2023-03-03T07:04:23;102646.72;;;5.95;100.00
19831;BME280;10076;52.008;4.708;2023-03-03T07:07:20;102651.59;;;6.10;100.00
19831;BME280;10076;52.008;4.708;2023-03-03T07:09:47;102651.97;;;5.95;100.00
19831;BME280;10076;52.008;4.708;2023-03-03T07:12:17;102653.75;;;5.93;100.00
19831;BME280;10076;52.008;4.708;2023-03-03T07:14:45;102654.44;;;6.01;100.00
19831;BME280;10076;52.008;4.708;2023-03-03T07:17:17;102664.97;;;5.98;100.00
19831;BME280;10076;52.008;4.708;2023-03-03T07:19:44;102656.88;;;6.07;100.00
19831;BME280;10076;52.008;4.708;2023-03-03T07:24:38;102665.44;;;6.15;100.00
19831;BME280;10076;52.008;4.708;2023-03-03T07:27:19;102672.31;;;6.20;100.00
19831;BME280;10076;52.008;4.708;2023-03-03T07:29:49;102664.38;;;6.23;100.00
19831;BME280;10076;52.008;4.708;2023-03-03T07:34:45;102678.69;;;6.46;100.00
19831;BME280;10076;52.008;4.708;2023-03-03T07:39:59;102683.69;;;6.55;100.00
19831;BME280;10076;52.008;4.708;2023-03-03T07:42:31;102683.53;;;6.61;100.00
19831;BME280;10076;52.008;4.708;2023-03-03T07:45:00;102682.38;;;6.71;100.00
19831;BME280;10076;52.008;4.708;2023-03-03T07:47:38;102685.97;;;6.69;100.00
19831;BME280;10076;52.008;4.708;2023-03-03T07:50:22;102683.88;;;6.48;100.00
19831;BME280;10076;52.008;4.708;2023-03-03T07:53:00;102680.94;;;6.60;100.00
19831;BME280;10076;52.008;4.708;2023-03-03T07:55:33;102689.03;;;6.52;100.00
19831;BME280;10076;52.008;4.708;2023-03-03T08:03:44;102693.97;;;6.63;100.00
19831;BME280;10076;52.008;4.708;2023-03-03T08:06:50;102700.59;;;6.79;100.00
19831;BME280;10076;52.008;4.708;2023-03-03T08:11:50;102710.06;;;6.84;100.00
19831;BME280;10076;52.008;4.708;2023-03-03T08:14:29;102715.03;;;6.94;100.00
19831;BME280;10076;52.008;4.708;2023-03-03T08:16:56;102724.09;;;6.83;100.00
19831;BME280;10076;52.008;4.708;2023-03-03T08:19:22;102729.19;;;6.89;100.00
19831;BME280;10076;52.008;4.708;2023-03-03T08:21:47;102719.25;;;7.01;100.00
19831;BME280;10076;52.008;4.708;2023-03-03T08:24:13;102726.19;;;7.04;100.00
19831;BME280;10076;52.008;4.708;2023-03-03T08:26:38;102723.22;;;7.16;100.00
19831;BME280;10076;52.008;4.708;2023-03-03T08:29:03;102727.38;;;7.23;100.00
19831;BME280;10076;52.008;4.708;2023-03-03T08:31:29;102734.72;;;7.44;100.00
19831;BME280;10076;52.008;4.708;2023-03-03T08:33:54;102729.41;;;7.45;100.00
19831;BME280;10076;52.008;4.708;2023-03-03T08:36:20;102737.97;;;7.52;100.00
19831;BME280;10076;52.008;4.708;2023-03-03T08:38:45;102732.47;;;7.60;100.00
19831;BME280;10076;52.008;4.708;2023-03-03T08:41:10;102734.81;;;7.39;100.00
19831;BME280;10076;52.008;4.708;2023-03-03T08:43:36;102728.38;;;7.51;100.00
19831;BME280;10076;52.008;4.708;2023-03-03T08:46:03;102735.50;;;7.47;100.00
19831;BME280;10076;52.008;4.708;2023-03-03T08:48:30;102734.66;;;7.75;100.00
19831;BME280;10076;52.008;4.708;2023-03-03T08:50:56;102738.81;;;7.82;100.00
19831;BME280;10076;52.008;4.708;2023-03-03T08:53:22;102742.91;;;7.92;100.00
19831;BME280;10076;52.008;4.708;2023-03-03T08:55:48;102747.03;;;8.01;100.00
19831;BME280;10076;52.008;4.708;2023-03-03T08:58:15;102739.50;;;8.19;100.00
19831;BME280;10076;52.008;4.708;2023-03-03T09:00:40;102744.66;;;8.22;100.00
19831;BME280;10076;52.008;4.708;2023-03-03T09:03:07;102742.53;;;8.34;100.00
19831;BME280;10076;52.008;4.708;2023-03-03T09:05:33;102751.72;;;8.47;100.00
19831;BME280;10076;52.008;4.708;2023-03-03T09:07:59;102749.78;;;8.54;100.00
19831;BME280;10076;52.008;4.708;2023-03-03T09:10:27;102762.69;;;8.61;100.00
19831;BME280;10076;52.008;4.708;2023-03-03T09:12:55;102755.69;;;8.88;100.00
19831;BME280;10076;52.008;4.708;2023-03-03T09:15:25;102744.81;;;8.96;100.00
19831;BME280;10076;52.008;4.708;2023-03-03T09:17:51;102745.72;;;8.95;100.00
19831;BME280;10076;52.008;4.708;2023-03-03T09:20:30;102743.84;;;9.25;100.00
19831;BME280;10076;52.008;4.708;2023-03-03T09:22:57;102744.09;;;9.17;100.00
19831;BME280;10076;52.008;4.708;2023-03-03T09:25:36;102737.66;;;9.26;100.00
19831;BME280;10076;52.008;4.708;2023-03-03T09:28:02;102744.47;;;9.31;100.00
19831;BME280;10076;52.008;4.708;2023-03-03T09:30:45;102742.03;;;9.74;100.00
19831;BME280;10076;52.008;4.708;2023-03-03T09:33:27;102745.13;;;9.85;100.00
19831;BME280;10076;52.008;4.708;2023-03-03T09:38:50;102748.22;;;11.24;100.00
19831;BME280;10076;52.008;4.708;2023-03-03T09:41:22;102742.19;;;11.98;100.00
19831;BME280;10076;52.008;4.708;2023-03-03T09:52:32;102759.09;;;16.90;100.00
19831;BME280;10076;52.008;4.708;2023-03-03T09:55:04;102757.88;;;17.59;100.00
19831;BME280;10076;52.008;4.708;2023-03-03T10:00:26;102764.88;;;19.51;100.00
19831;BME280;10076;52.008;4.708;2023-03-03T10:03:18;102763.13;;;20.28;100.00
19831;BME280;10076;52.008;4.708;2023-03-03T10:06:03;102768.66;;;21.62;100.00
19831;BME280;10076;52.008;4.708;2023-03-03T10:17:01;102766.22;;;25.92;67.36
19831;BME280;10076;52.008;4.708;2023-03-03T10:35:40;102776.72;;;30.01;43.66
19831;BME280;10076;52.008;4.708;2023-03-03T10:43:20;102772.19;;;29.12;43.59
19831;BME280;10076;52.008;4.708;2023-03-03T10:49:11;102771.38;;;29.12;42.55
19831;BME280;10076;52.008;4.708;2023-03-03T10:54:39;102774.03;;;28.97;43.11
19831;BME280;10076;52.008;4.708;2023-03-03T10:57:40;102768.69;;;29.26;43.23
19831;BME280;10076;52.008;4.708;2023-03-03T11:08:22;102763.47;;;31.12;39.88
19831;BME280;10076;52.008;4.708;2023-03-03T11:11:13;102758.19;;;32.07;38.04
19831;BME280;10076;52.008;4.708;2023-03-03T11:14:02;102768.88;;;32.89;36.71
19831;BME280;10076;52.008;4.708;2023-03-03T11:16:42;102769.16;;;33.06;35.12
19831;BME280;10076;52.008;4.708;2023-03-03T11:33:10;102759.16;;;32.86;33.82
19831;BME280;10076;52.008;4.708;2023-03-03T11:36:10;102756.44;;;31.03;33.60
19831;BME280;10076;52.008;4.708;2023-03-03T11:44:01;102739.88;;;25.52;42.81
19831;BME280;10076;52.008;4.708;2023-03-03T11:49:13;102742.63;;;25.17;44.51
19831;BME280;10076;52.008;4.708;2023-03-03T11:52:19;102735.97;;;27.51;41.94
19831;BME280;10076;52.008;4.708;2023-03-03T11:57:36;102735.97;;;31.61;34.46
19831;BME280;10076;52.008;4.708;2023-03-03T12:00:20;102738.91;;;31.87;33.86
19831;BME280;10076;52.008;4.708;2023-03-03T12:03:10;102728.66;;;30.99;34.59
19831;BME280;10076;52.008;4.708;2023-03-03T12:05:49;102730.88;;;31.31;34.36
19831;BME280;10076;52.008;4.708;2023-03-03T12:11:13;102732.19;;;32.77;32.14
19831;BME280;10076;52.008;4.708;2023-03-03T12:14:04;102726.53;;;33.94;32.27
19831;BME280;10076;52.008;4.708;2023-03-03T12:16:46;102720.47;;;33.15;31.89
19831;BME280;10076;52.008;4.708;2023-03-03T12:19:27;102722.72;;;32.20;31.31
19831;BME280;10076;52.008;4.708;2023-03-03T12:22:07;102722.59;;;32.47;31.53
19831;BME280;10076;52.008;4.708;2023-03-03T12:24:57;102724.94;;;33.29;30.44
19831;BME280;10076;52.008;4.708;2023-03-03T12:30:32;102710.50;;;35.89;29.06
19831;BME280;10076;52.008;4.708;2023-03-03T12:33:12;102719.75;;;36.48;27.43
19831;BME280;10076;52.008;4.708;2023-03-03T12:35:44;102710.50;;;37.31;26.74
19831;BME280;10076;52.008;4.708;2023-03-03T12:44:20;102704.25;;;33.52;27.60
19831;BME280;10076;52.008;4.708;2023-03-03T12:52:28;102685.50;;;25.20;35.88
19831;BME280;10076;52.008;4.708;2023-03-03T12:57:48;102681.94;;;22.58;42.09
19831;BME280;10076;52.008;4.708;2023-03-03T13:00:25;102683.13;;;21.16;48.66
19831;BME280;10076;52.008;4.708;2023-03-03T13:02:57;102688.91;;;20.38;53.30
19831;BME280;10076;52.008;4.708;2023-03-03T13:05:39;102688.50;;;20.00;56.75
19831;BME280;10076;52.008;4.708;2023-03-03T13:16:43;102674.38;;;18.28;71.21
19831;BME280;10076;52.008;4.708;2023-03-03T13:19:15;102667.19;;;17.93;69.59
19831;BME280;10076;52.008;4.708;2023-03-03T13:21:59;102676.91;;;18.66;81.20
19831;BME280;10076;52.008;4.708;2023-03-03T13:24:41;102667.88;;;23.20;56.53
19831;BME280;10076;52.008;4.708;2023-03-03T13:27:12;102673.00;;;27.71;45.63
19831;BME280;10076;52.008;4.708;2023-03-03T13:32:23;102682.88;;;29.67;35.29
19831;BME280;10076;52.008;4.708;2023-03-03T13:35:17;102680.03;;;29.09;35.64
19831;BME280;10076;52.008;4.708;2023-03-03T13:37:52;102677.75;;;27.69;37.21
19831;BME280;10076;52.008;4.708;2023-03-03T13:40:35;102670.50;;;25.76;38.85
19831;BME280;10076;52.008;4.708;2023-03-03T13:43:12;102677.97;;;24.27;40.97
19831;BME280;10076;52.008;4.708;2023-03-03T13:59:33;102654.00;;;19.96;54.16
19831;BME280;10076;52.008;4.708;2023-03-03T14:04:53;102660.44;;;18.93;59.87
19831;BME280;10076;52.008;4.708;2023-03-03T14:10:23;102649.59;;;17.66;68.25
19831;BME280;10076;52.008;4.708;2023-03-03T14:15:27;102652.78;;;17.09;72.44
19831;BME280;10076;52.008;4.708;2023-03-03T14:20:33;102649.34;;;16.56;78.65
19831;BME280;10076;52.008;4.708;2023-03-03T14:23:24;102642.75;;;16.49;80.96
19831;BME280;10076;52.008;4.708;2023-03-03T14:28:40;102639.56;;;16.30;80.39
19831;BME280;10076;52.008;4.708;2023-03-03T14:31:25;102643.97;;;16.17;81.74
19831;BME280;10076;52.008;4.708;2023-03-03T14:36:43;102636.06;;;16.15;83.59
19831;BME280;10076;52.008;4.708;2023-03-03T14:39:34;102641.94;;;15.94;86.03
19831;BME280;10076;52.008;4.708;2023-03-03T14:42:05;102645.22;;;16.11;83.09
19831;BME280;10076;52.008;4.708;2023-03-03T14:44:53;102638.97;;;15.98;84.74
19831;BME280;10076;52.008;4.708;2023-03-03T14:47:21;102634.34;;;15.74;87.46
19831;BME280;10076;52.008;4.708;2023-03-03T14:49:47;102637.03;;;15.32;89.25
19831;BME280;10076;52.008;4.708;2023-03-03T14:54:40;102631.50;;;15.35;96.47
19831;BME280;10076;52.008;4.708;2023-03-03T14:57:12;102628.19;;;14.89;98.09
19831;BME280;10076;52.008;4.708;2023-03-03T14:59:40;102632.16;;;14.68;99.29
19831;BME280;10076;52.008;4.708;2023-03-03T15:04:45;102624.44;;;14.19;100.00
19831;BME280;10076;52.008;4.708;2023-03-03T15:07:31;102624.34;;;14.05;100.00
19831;BME280;10076;52.008;4.708;2023-03-03T15:09:58;102623.59;;;13.87;100.00
19831;BME280;10076;52.008;4.708;2023-03-03T15:12:26;102628.34;;;13.81;100.00
19831;BME280;10076;52.008;4.708;2023-03-03T15:15:11;102627.06;;;13.73;100.00
19831;BME280;10076;52.008;4.708;2023-03-03T15:17:44;102614.19;;;13.50;100.00
19831;BME280;10076;52.008;4.708;2023-03-03T15:25:32;102616.47;;;13.57;100.00
19831;BME280;10076;52.008;4.708;2023-03-03T15:30:36;102615.22;;;13.47;100.00
19831;BME280;10076;52.008;4.708;2023-03-03T15:38:12;102615.28;;;13.30;100.00
19831;BME280;10076;52.008;4.708;2023-03-03T15:40:47;102613.56;;;13.29;100.00
19831;BME280;10076;52.008;4.708;2023-03-03T15:46:20;102602.19;;;13.27;100.00
19831;BME280;10076;52.008;4.708;2023-03-03T15:51:29;102604.88;;;12.77;100.00
19831;BME280;10076;52.008;4.708;2023-03-03T15:54:12;102608.41;;;12.60;100.00
19831;BME280;10076;52.008;4.708;2023-03-03T15:57:03;102605.75;;;12.60;100.00
19831;BME280;10076;52.008;4.708;2023-03-03T15:59:53;102598.75;;;12.42;100.00
19831;BME280;10076;52.008;4.708;2023-03-03T16:02:32;102596.41;;;12.37;100.00
19831;BME280;10076;52.008;4.708;2023-03-03T16:05:13;102607.09;;;12.35;100.00
19831;BME280;10076;52.008;4.708;2023-03-03T16:07:57;102607.22;;;12.32;100.00
19831;BME280;10076;52.008;4.708;2023-03-03T16:10:33;102610.16;;;12.26;100.00
19831;BME280;10076;52.008;4.708;2023-03-03T16:13:21;102605.13;;;12.22;100.00
19831;BME280;10076;52.008;4.708;2023-03-03T16:21:10;102614.63;;;12.26;100.00
19831;BME280;10076;52.008;4.708;2023-03-03T16:23:46;102618.50;;;12.19;100.00
19831;BME280;10076;52.008;4.708;2023-03-03T16:28:54;102614.50;;;12.10;100.00